createdAt,value
2023-03-04T00:00:04.513Z,29.33
2023-03-04T00:02:36.780Z,31.23
2023-03-04T00:05:03.744Z,30.30
2023-03-04T00:07:30.448Z,28.50
2023-03-04T00:09:57.012Z,28.52
2023-03-04T00:12:23.623Z,27.45
2023-03-04T00:14:50.178Z,28.70
2023-03-04T00:17:16.687Z,29.35
2023-03-04T00:19:43.222Z,28.98
2023-03-04T00:22:09.997Z,30.50
2023-03-04T00:24:36.580Z,28.73
2023-03-04T00:27:03.137Z,29.05
2023-03-04T00:29:29.659Z,29.85
2023-03-04T00:31:56.356Z,27.77
2023-03-04T00:34:23.000Z,30.65
2023-03-04T00:36:49.645Z,27.00
2023-03-04T00:39:17.299Z,29.75
2023-03-04T00:41:43.811Z,29.65
2023-03-04T00:44:10.459Z,30.08
2023-03-04T00:46:38.249Z,28.73
2023-03-04T00:49:04.741Z,29.98
2023-03-04T00:51:31.524Z,28.90
2023-03-04T00:54:00.688Z,29.08
2023-03-04T00:56:27.544Z,30.45
2023-03-04T00:58:54.854Z,28.45
2023-03-04T01:01:21.471Z,29.33
2023-03-04T01:03:47.991Z,30.88
2023-03-04T01:06:14.550Z,29.98
2023-03-04T01:08:41.545Z,29.77
2023-03-04T01:11:08.455Z,27.88
2023-03-04T01:13:35.087Z,28.55
2023-03-04T01:16:03.318Z,27.83
2023-03-04T01:18:29.833Z,27.67
2023-03-04T01:20:56.904Z,28.70
2023-03-04T01:23:23.378Z,27.60
2023-03-04T01:25:49.976Z,29.85
2023-03-04T01:28:16.663Z,29.50
2023-03-04T01:30:43.164Z,28.23
2023-03-04T01:33:09.887Z,28.27
2023-03-04T01:35:36.560Z,28.55
2023-03-04T01:38:03.871Z,28.80
2023-03-04T01:40:31.988Z,29.42
2023-03-04T01:42:58.987Z,29.25
2023-03-04T01:45:25.660Z,31.08
2023-03-04T01:47:52.507Z,30.50
2023-03-04T01:50:23.685Z,30.15
2023-03-04T01:52:50.274Z,29.27
2023-03-04T01:55:19.544Z,29.70
2023-03-04T01:57:47.837Z,29.70
2023-03-04T02:00:30.830Z,28.83
2023-03-04T02:03:07.888Z,31.10
2023-03-04T02:05:37.107Z,27.95
2023-03-04T02:08:04.929Z,27.48
2023-03-04T02:10:32.409Z,27.13
2023-03-04T02:13:00.859Z,28.52
2023-03-04T02:15:28.994Z,27.83
2023-03-04T02:17:55.486Z,27.65
2023-03-04T02:20:35.246Z,26.70
2023-03-04T02:23:11.637Z,27.30
2023-03-04T02:26:17.178Z,26.73
2023-03-04T02:28:45.630Z,25.30
2023-03-04T02:31:34.703Z,24.83
2023-03-04T02:34:04.575Z,23.55
2023-03-04T02:36:32.299Z,24.63
2023-03-04T02:39:07.206Z,24.70
2023-03-04T02:41:34.414Z,25.85
2023-03-04T02:44:01.324Z,24.45
2023-03-04T02:46:28.320Z,25.13
2023-03-04T02:48:55.093Z,22.60
2023-03-04T02:51:21.811Z,23.95
2023-03-04T02:53:48.435Z,25.85
2023-03-04T02:56:15.235Z,23.67
2023-03-04T02:58:41.750Z,23.90
2023-03-04T03:01:10.392Z,22.08
2023-03-04T03:03:37.278Z,23.70
2023-03-04T03:06:04.221Z,22.25
2023-03-04T03:08:30.815Z,22.17
2023-03-04T03:10:57.367Z,22.63
2023-03-04T03:13:25.290Z,23.02
2023-03-04T03:15:52.420Z,22.42
2023-03-04T03:18:19.102Z,22.42
2023-03-04T03:20:45.943Z,23.83
2023-03-04T03:23:12.536Z,23.95
2023-03-04T03:25:39.101Z,23.23
2023-03-04T03:28:06.034Z,23.20
2023-03-04T03:30:32.847Z,22.48
2023-03-04T03:32:59.335Z,23.25
2023-03-04T03:35:25.861Z,23.02
2023-03-04T03:37:52.563Z,23.73
2023-03-04T03:40:19.035Z,22.25
2023-03-04T03:42:45.517Z,21.75
2023-03-04T03:45:12.748Z,22.23
2023-03-04T03:47:39.356Z,22.55
2023-03-04T03:50:06.470Z,21.65
2023-03-04T03:52:33.017Z,21.58
2023-03-04T03:55:02.064Z,21.45
2023-03-04T03:57:29.387Z,22.23
2023-03-04T03:59:56.287Z,22.63
2023-03-04T04:02:23.041Z,22.35
2023-03-04T04:04:49.773Z,23.63
2023-03-04T04:07:16.530Z,23.48
2023-03-04T04:09:43.280Z,21.58
2023-03-04T04:12:13.017Z,22.23
2023-03-04T04:14:39.827Z,22.52
2023-03-04T04:17:06.345Z,22.45
2023-03-04T04:19:32.913Z,23.05
2023-03-04T04:21:59.382Z,22.30
2023-03-04T04:24:25.984Z,24.00
2023-03-04T04:26:52.822Z,23.08
2023-03-04T04:29:19.560Z,23.40
2023-03-04T04:31:46.058Z,23.92
2023-03-04T04:34:12.520Z,23.92
2023-03-04T04:36:39.022Z,24.00
2023-03-04T04:39:05.576Z,23.67
2023-03-04T04:41:39.755Z,22.63
2023-03-04T04:44:06.783Z,21.95
2023-03-04T04:46:33.744Z,21.92
2023-03-04T04:49:00.807Z,22.55
2023-03-04T04:51:27.593Z,23.95
2023-03-04T04:53:54.145Z,22.60
2023-03-04T04:56:24.627Z,22.33
2023-03-04T04:58:51.094Z,23.02
2023-03-04T05:01:17.680Z,22.60
2023-03-04T05:03:44.345Z,22.60
2023-03-04T05:06:12.933Z,22.30
2023-03-04T05:08:39.440Z,21.73
2023-03-04T05:11:07.133Z,22.63
2023-03-04T05:13:33.938Z,21.63
2023-03-04T05:16:01.716Z,23.73
2023-03-04T05:18:29.014Z,24.02
2023-03-04T05:21:00.986Z,23.25
2023-03-04T05:23:32.183Z,23.30
2023-03-04T05:25:58.678Z,21.35
2023-03-04T05:28:25.168Z,23.60
2023-03-04T05:30:51.885Z,23.10
2023-03-04T05:33:19.342Z,26.33
2023-03-04T05:35:48.621Z,23.65
2023-03-04T05:38:17.512Z,24.48
2023-03-04T05:40:44.635Z,23.70
2023-03-04T05:43:11.706Z,24.83
2023-03-04T05:45:39.198Z,22.55
2023-03-04T05:48:06.247Z,23.55
2023-03-04T05:50:33.019Z,25.67
2023-03-04T05:52:59.743Z,25.55
2023-03-04T05:55:28.997Z,24.25
2023-03-04T05:57:55.878Z,23.60
2023-03-04T06:00:22.469Z,24.25
2023-03-04T06:02:49.002Z,25.05
2023-03-04T06:05:16.324Z,27.00
2023-03-04T06:07:43.953Z,25.52
2023-03-04T06:10:13.184Z,27.17
2023-03-04T06:12:40.363Z,25.38
2023-03-04T06:15:10.006Z,26.95
2023-03-04T06:17:39.493Z,26.42
2023-03-04T06:20:09.019Z,27.42
2023-03-04T06:22:35.752Z,26.33
2023-03-04T06:25:02.318Z,25.13
2023-03-04T06:27:28.830Z,25.30
2023-03-04T06:29:55.350Z,25.30
2023-03-04T06:32:22.124Z,24.80
2023-03-04T06:34:48.606Z,25.23
2023-03-04T06:37:15.203Z,25.52
2023-03-04T06:39:41.718Z,26.65
2023-03-04T06:42:08.219Z,25.67
2023-03-04T06:44:34.721Z,26.15
2023-03-04T06:47:01.259Z,25.55
2023-03-04T06:49:27.810Z,27.45
2023-03-04T06:51:54.372Z,26.05
2023-03-04T06:54:20.925Z,26.90
2023-03-04T06:56:47.411Z,28.80
2023-03-04T06:59:14.064Z,26.55
2023-03-04T07:01:40.593Z,26.90
2023-03-04T07:04:07.327Z,27.13
2023-03-04T07:06:34.215Z,26.90
2023-03-04T07:09:00.823Z,26.63
2023-03-04T07:11:27.629Z,26.17
2023-03-04T07:13:55.769Z,27.10
2023-03-04T07:16:23.673Z,25.65
2023-03-04T07:18:50.586Z,28.08
2023-03-04T07:21:17.432Z,25.52
2023-03-04T07:23:44.787Z,26.33
2023-03-04T07:26:11.532Z,27.52
2023-03-04T07:28:38.281Z,27.35
2023-03-04T07:31:13.317Z,26.42
2023-03-04T07:33:39.976Z,25.77
2023-03-04T07:36:06.599Z,26.05
2023-03-04T07:38:33.200Z,26.40
2023-03-04T07:40:59.779Z,26.65
2023-03-04T07:43:26.652Z,27.20
2023-03-04T07:45:58.043Z,31.23
2023-03-04T07:48:24.611Z,28.52
2023-03-04T07:50:51.154Z,31.58
2023-03-04T07:53:17.653Z,30.35
2023-03-04T07:55:48.141Z,29.55
2023-03-04T07:58:14.672Z,27.25
2023-03-04T08:00:41.414Z,28.30
2023-03-04T08:03:07.869Z,33.10
2023-03-04T08:05:34.363Z,30.30
2023-03-04T08:08:00.891Z,28.50
2023-03-04T08:10:27.516Z,28.52
2023-03-04T08:12:54.052Z,29.33
2023-03-04T08:15:20.808Z,29.20
2023-03-04T08:17:47.351Z,29.92
2023-03-04T08:20:14.010Z,29.10
2023-03-04T08:22:40.525Z,32.17
2023-03-04T08:25:07.327Z,31.70
2023-03-04T08:27:33.862Z,32.92
2023-03-04T08:30:00.446Z,34.50
2023-03-04T08:32:27.057Z,35.78
2023-03-04T08:34:56.454Z,33.22
2023-03-04T08:37:23.787Z,33.58
2023-03-04T08:39:50.271Z,34.75
2023-03-04T08:42:16.755Z,33.10
2023-03-04T08:44:43.257Z,36.95
2023-03-04T08:47:10.293Z,35.40
2023-03-04T08:49:36.842Z,33.42
2023-03-04T08:52:03.694Z,36.35
2023-03-04T08:54:30.415Z,33.55
2023-03-04T08:56:57.089Z,36.17
2023-03-04T08:59:24.292Z,36.70
2023-03-04T09:01:51.489Z,33.35
2023-03-04T09:04:18.079Z,34.58
2023-03-04T09:06:44.647Z,34.42
2023-03-04T09:09:11.121Z,36.08
2023-03-04T09:11:38.154Z,33.00
2023-03-04T09:14:04.681Z,34.33
2023-03-04T09:16:31.225Z,36.05
2023-03-04T09:18:58.081Z,33.75
2023-03-04T09:21:24.683Z,34.53
2023-03-04T09:23:51.327Z,32.75
2023-03-04T09:26:26.899Z,31.73
2023-03-04T09:28:58.506Z,31.55
2023-03-04T09:31:25.906Z,36.03
2023-03-04T09:33:53.805Z,33.53
2023-03-04T09:36:20.707Z,34.65
2023-03-04T09:38:47.220Z,33.22
2023-03-04T09:41:40.301Z,31.73
2023-03-04T09:44:15.172Z,31.67
2023-03-04T09:46:44.083Z,30.45
2023-03-04T09:49:13.079Z,31.98
2023-03-04T09:52:04.420Z,33.30
2023-03-04T09:54:49.615Z,33.80
2023-03-04T09:57:43.412Z,31.02
2023-03-04T10:00:20.166Z,30.00
2023-03-04T10:03:05.744Z,29.13
2023-03-04T10:05:36.830Z,30.90
2023-03-04T10:08:33.943Z,30.83
2023-03-04T10:11:03.287Z,28.48
2023-03-04T10:13:37.857Z,29.25
2023-03-04T10:16:08.791Z,29.35
2023-03-04T10:18:49.725Z,30.33
2023-03-04T10:21:30.766Z,31.73
2023-03-04T10:24:00.125Z,29.50
2023-03-04T10:26:30.586Z,30.50
2023-03-04T10:28:57.079Z,30.38
2023-03-04T10:31:43.729Z,30.33
2023-03-04T10:34:12.513Z,30.42
2023-03-04T10:36:57.308Z,29.27
2023-03-04T10:39:37.309Z,28.70
2023-03-04T10:42:24.308Z,29.90
2023-03-04T10:45:00.157Z,28.60
2023-03-04T10:47:33.013Z,29.83
2023-03-04T10:50:01.939Z,29.20
2023-03-04T10:52:38.404Z,28.45
2023-03-04T10:55:15.393Z,30.33
2023-03-04T10:57:44.677Z,32.00
2023-03-04T11:00:17.428Z,29.65
2023-03-04T11:02:45.826Z,27.67
2023-03-04T11:05:15.583Z,28.45
2023-03-04T11:08:00.230Z,30.92
2023-03-04T11:10:35.831Z,29.30
2023-03-04T11:13:12.697Z,26.92
2023-03-04T11:15:58.168Z,25.58
2023-03-04T11:18:31.398Z,21.27
2023-03-04T11:20:59.812Z,22.55
2023-03-04T11:23:32.202Z,28.50
2023-03-04T11:26:05.505Z,25.98
2023-03-04T11:28:50.384Z,21.80
2023-03-04T11:31:23.619Z,21.02
2023-03-04T11:33:55.673Z,20.35
2023-03-04T11:36:49.631Z,20.33
2023-03-04T11:39:32.629Z,21.50
2023-03-04T11:42:05.390Z,21.98
2023-03-04T11:44:31.958Z,20.98
2023-03-04T11:47:16.854Z,22.98
2023-03-04T11:50:04.006Z,20.25
2023-03-04T11:53:10.688Z,20.70
2023-03-04T11:56:14.693Z,20.65
2023-03-04T11:59:06.877Z,21.65
2023-03-04T12:01:48.531Z,22.63
2023-03-04T12:04:27.582Z,20.85
2023-03-04T12:07:12.358Z,21.05
2023-03-04T12:10:06.898Z,20.58
2023-03-04T12:12:58.416Z,21.42
2023-03-04T12:15:43.222Z,22.90
2023-03-04T12:18:19.336Z,23.08
2023-03-04T12:21:04.540Z,24.70
2023-03-04T12:23:40.117Z,21.13
2023-03-04T12:26:16.036Z,22.15
2023-03-04T12:28:52.446Z,19.48
2023-03-04T12:31:34.603Z,21.08
2023-03-04T12:34:19.443Z,21.70
2023-03-04T12:36:59.922Z,21.10
2023-03-04T12:39:33.920Z,20.15
2023-03-04T12:42:37.566Z,19.65
2023-03-04T12:45:30.255Z,21.65
2023-03-04T12:48:10.455Z,19.05
2023-03-04T12:50:48.081Z,18.65
2023-03-04T12:53:14.524Z,17.92
2023-03-04T12:55:45.061Z,20.60
2023-03-04T12:58:32.331Z,18.77
2023-03-04T13:01:25.827Z,17.58
2023-03-04T13:04:08.387Z,17.25
2023-03-04T13:06:48.739Z,16.38
2023-03-04T13:09:30.109Z,18.02
2023-03-04T13:12:24.981Z,17.35
2023-03-04T13:17:51.228Z,16.42
2023-03-04T13:20:30.060Z,14.90
2023-03-04T13:23:01.729Z,16.52
2023-03-04T13:25:37.628Z,15.80
2023-03-04T13:28:10.265Z,17.15
2023-03-04T13:30:38.153Z,14.70
2023-03-04T13:33:13.636Z,16.20
2023-03-04T13:35:49.545Z,15.80
2023-03-04T13:38:28.477Z,13.63
2023-03-04T13:41:19.596Z,12.95
2023-03-04T13:43:52.088Z,13.20
2023-03-04T13:46:18.734Z,14.48
2023-03-04T13:48:51.573Z,14.13
2023-03-04T13:51:44.083Z,14.27
2023-03-04T13:54:27.540Z,11.98
2023-03-04T13:56:59.998Z,12.40
2023-03-04T13:59:42.124Z,12.57
2023-03-04T14:02:15.730Z,12.52
2023-03-04T14:04:44.770Z,12.65
2023-03-04T14:07:19.602Z,13.40
2023-03-04T14:09:58.335Z,13.43
2023-03-04T14:12:26.132Z,14.02
2023-03-04T14:14:54.976Z,13.25
2023-03-04T14:17:29.711Z,12.50
2023-03-04T14:19:56.922Z,13.48
2023-03-04T14:22:34.127Z,16.52
2023-03-04T14:25:07.902Z,12.27
2023-03-04T14:27:36.436Z,11.18
2023-03-04T14:30:06.895Z,11.32
2023-03-04T14:32:33.603Z,11.82
2023-03-04T14:35:18.193Z,11.40
2023-03-04T14:37:54.651Z,10.93
2023-03-04T14:40:25.642Z,10.23
2023-03-04T14:42:58.594Z,10.90
2023-03-04T14:45:26.008Z,10.43
2023-03-04T14:47:57.088Z,10.02
2023-03-04T14:50:23.689Z,9.75
2023-03-04T14:53:05.076Z,9.27
2023-03-04T14:55:31.610Z,8.82
2023-03-04T14:58:10.473Z,9.68
2023-03-04T15:00:40.857Z,10.13
2023-03-04T15:03:22.789Z,10.20
2023-03-04T15:05:49.845Z,10.35
2023-03-04T15:08:21.579Z,10.73
2023-03-04T15:10:59.600Z,9.15
2023-03-04T15:13:39.948Z,10.10
2023-03-04T15:16:07.179Z,9.30
2023-03-04T15:18:33.936Z,10.10
2023-03-04T15:21:02.824Z,9.68
2023-03-04T15:23:31.023Z,8.98
2023-03-04T15:26:02.812Z,10.07
2023-03-04T15:28:35.943Z,9.43
2023-03-04T15:31:03.182Z,8.75
2023-03-04T15:33:29.872Z,8.48
2023-03-04T15:35:59.658Z,9.52
2023-03-04T15:38:27.849Z,9.55
2023-03-04T15:40:55.240Z,11.65
2023-03-04T15:43:23.180Z,7.78
2023-03-04T15:45:50.879Z,8.63
2023-03-04T15:48:18.524Z,10.25
2023-03-04T15:50:49.565Z,9.05
2023-03-04T15:53:23.420Z,10.38
2023-03-04T15:55:50.005Z,8.65
2023-03-04T15:58:16.664Z,8.98
2023-03-04T16:00:43.245Z,8.45
2023-03-04T16:03:17.277Z,8.18
2023-03-04T16:05:46.406Z,9.18
2023-03-04T16:08:15.806Z,9.35
2023-03-04T16:10:43.881Z,9.35
2023-03-04T16:13:15.581Z,8.95
2023-03-04T16:15:43.256Z,8.85
2023-03-04T16:18:11.618Z,8.80
2023-03-04T16:20:39.180Z,8.07
2023-03-04T16:23:06.392Z,8.77
2023-03-04T16:25:33.655Z,8.90
2023-03-04T16:28:02.881Z,8.38
2023-03-04T16:30:30.291Z,9.25
2023-03-04T16:32:57.077Z,9.38
2023-03-04T16:35:27.769Z,7.65
2023-03-04T16:37:54.865Z,7.80
2023-03-04T16:40:27.271Z,9.02
2023-03-04T16:42:54.616Z,8.68
2023-03-04T16:45:25.835Z,9.55
2023-03-04T16:47:52.751Z,11.13
2023-03-04T16:50:22.057Z,15.55
2023-03-04T16:52:49.282Z,12.70
2023-03-04T16:55:25.042Z,16.13
2023-03-04T16:57:52.403Z,13.15
2023-03-04T17:00:20.264Z,13.75
2023-03-04T17:02:53.852Z,10.50
2023-03-04T17:05:23.311Z,13.13
2023-03-04T17:07:49.916Z,9.75
2023-03-04T17:10:17.128Z,9.25
2023-03-04T17:12:44.011Z,8.50
2023-03-04T17:15:12.904Z,8.40
2023-03-04T17:17:40.217Z,10.40
2023-03-04T17:20:08.755Z,11.00
2023-03-04T17:22:35.608Z,12.10
2023-03-04T17:25:03.007Z,14.10
2023-03-04T17:27:30.504Z,9.40
2023-03-04T17:29:57.285Z,9.73
2023-03-04T17:32:24.372Z,10.40
2023-03-04T17:34:54.588Z,12.52
2023-03-04T17:37:21.750Z,13.43
2023-03-04T17:39:48.273Z,12.65
2023-03-04T17:42:14.892Z,13.98
2023-03-04T17:44:41.441Z,13.85
2023-03-04T17:47:08.412Z,12.50
2023-03-04T17:49:34.930Z,11.93
2023-03-04T17:52:04.028Z,11.55
2023-03-04T17:54:31.004Z,11.75
2023-03-04T17:56:57.543Z,15.20
2023-03-04T17:59:24.613Z,23.30
2023-03-04T18:01:54.053Z,12.20
2023-03-04T18:04:21.393Z,9.82
2023-03-04T18:06:47.932Z,10.10
2023-03-04T18:09:14.713Z,17.73
2023-03-04T18:11:42.210Z,10.23
2023-03-04T18:14:09.173Z,9.73
2023-03-04T18:16:35.834Z,10.25
2023-03-04T18:19:02.671Z,11.50
2023-03-04T18:21:29.932Z,11.43
2023-03-04T18:23:57.413Z,9.52
2023-03-04T18:26:25.484Z,9.77
2023-03-04T18:28:54.140Z,9.23
2023-03-04T18:31:28.896Z,9.38
2023-03-04T18:33:59.322Z,10.52
2023-03-04T18:36:26.595Z,11.13
2023-03-04T18:38:53.257Z,10.68
2023-03-04T18:41:19.812Z,10.20
2023-03-04T18:43:46.290Z,10.40
2023-03-04T18:46:30.489Z,9.27
2023-03-04T18:49:02.075Z,10.32
2023-03-04T18:51:28.985Z,11.43
2023-03-04T18:53:55.547Z,9.95
2023-03-04T18:56:31.395Z,9.80
2023-03-04T18:58:58.740Z,9.85
2023-03-04T19:01:25.508Z,10.52
2023-03-04T19:03:54.543Z,10.30
2023-03-04T19:12:14.861Z,10.77
2023-03-04T19:14:41.690Z,9.80
2023-03-04T19:17:08.284Z,9.38
2023-03-04T19:19:36.393Z,9.80
2023-03-04T19:22:03.714Z,10.38
2023-03-04T19:24:30.236Z,9.40
2023-03-04T19:26:56.808Z,11.13
2023-03-04T19:29:23.290Z,10.18
2023-03-04T19:31:49.746Z,9.57
2023-03-04T19:34:16.227Z,10.32
2023-03-04T19:36:42.726Z,12.93
2023-03-04T19:39:10.290Z,11.30
2023-03-04T19:41:37.030Z,12.07
2023-03-04T19:44:03.458Z,10.10
2023-03-04T19:46:32.146Z,10.20
2023-03-04T19:48:59.314Z,9.50
2023-03-04T19:51:26.641Z,10.00
2023-03-04T19:53:54.391Z,11.05
2023-03-04T19:56:22.038Z,12.50
2023-03-04T19:58:48.665Z,10.57
2023-03-04T20:01:28.170Z,10.38
2023-03-04T20:04:00.578Z,10.15
2023-03-04T20:06:27.584Z,11.18
2023-03-04T20:08:59.028Z,9.35
2023-03-04T20:11:27.234Z,9.93
2023-03-04T20:13:55.115Z,9.73
2023-03-04T20:16:21.646Z,10.90
2023-03-04T20:18:48.204Z,9.68
2023-03-04T20:21:14.781Z,9.48
2023-03-04T20:23:41.300Z,10.95
2023-03-04T20:26:07.815Z,8.25
2023-03-04T20:28:48.456Z,10.20
2023-03-04T20:31:22.671Z,8.43
2023-03-04T20:33:50.195Z,11.05
2023-03-04T20:36:18.020Z,10.07
2023-03-04T20:38:44.740Z,8.68
2023-03-04T20:41:11.605Z,9.98
2023-03-04T20:43:38.136Z,9.63
2023-03-04T20:46:45.003Z,9.13
2023-03-04T20:49:13.160Z,9.40
2023-03-04T20:51:42.155Z,9.32
2023-03-04T20:54:09.255Z,9.68
2023-03-04T20:56:36.477Z,10.35
2023-03-04T20:59:05.722Z,10.15
2023-03-04T21:01:32.526Z,11.07
2023-03-04T21:04:00.561Z,11.25
2023-03-04T21:06:29.067Z,11.68
2023-03-04T21:08:59.371Z,10.73
2023-03-04T21:11:25.859Z,9.48
2023-03-04T21:13:57.614Z,10.40
2023-03-04T21:16:30.026Z,10.82
2023-03-04T21:18:56.612Z,10.18
2023-03-04T21:21:25.186Z,10.60
2023-03-04T21:23:53.716Z,10.52
2023-03-04T21:26:22.200Z,9.93
2023-03-04T21:28:49.401Z,9.50
2023-03-04T21:31:18.819Z,8.45
2023-03-04T21:33:46.553Z,10.52
2023-03-04T21:36:13.909Z,9.68
2023-03-04T21:38:41.458Z,9.88
2023-03-04T21:41:14.201Z,9.60
2023-03-04T21:43:40.962Z,9.23
2023-03-04T21:46:08.965Z,8.85
2023-03-04T21:48:36.276Z,9.60
2023-03-04T21:51:05.394Z,9.73
2023-03-04T21:53:33.125Z,10.40
2023-03-04T21:55:59.631Z,10.43
2023-03-04T21:58:26.312Z,10.70
2023-03-04T22:00:53.207Z,9.25
2023-03-04T22:03:21.477Z,10.27
2023-03-04T22:05:48.430Z,8.77
2023-03-04T22:08:16.529Z,8.75
2023-03-04T22:10:44.006Z,8.40
2023-03-04T22:13:12.998Z,10.05
2023-03-04T22:15:41.685Z,9.43
2023-03-04T22:18:11.576Z,10.13
2023-03-04T22:20:40.396Z,10.43
2023-03-04T22:23:07.678Z,9.18
2023-03-04T22:25:40.342Z,8.88
2023-03-04T22:28:07.487Z,9.93
2023-03-04T22:30:35.581Z,9.40
2023-03-04T22:33:02.348Z,8.50
2023-03-04T22:35:28.805Z,8.90
2023-03-04T22:37:55.314Z,10.65
2023-03-04T22:40:21.781Z,11.20
2023-03-04T22:42:49.144Z,8.73
2023-03-04T22:45:17.899Z,7.97
2023-03-04T22:47:50.077Z,7.93
2023-03-04T22:50:18.257Z,8.40
2023-03-04T22:52:44.995Z,8.40
2023-03-04T22:55:12.297Z,9.13
2023-03-04T22:57:38.815Z,8.90
2023-03-04T23:00:15.754Z,8.80
2023-03-04T23:02:42.364Z,9.80
2023-03-04T23:05:09.886Z,9.05
2023-03-04T23:07:36.953Z,8.25
2023-03-04T23:10:04.721Z,9.73
2023-03-04T23:12:32.878Z,9.98
2023-03-04T23:14:59.410Z,9.85
2023-03-04T23:17:25.969Z,9.23
2023-03-04T23:19:52.434Z,9.60
2023-03-04T23:22:19.183Z,8.27
2023-03-04T23:24:45.606Z,8.82
2023-03-04T23:27:12.083Z,10.27
2023-03-04T23:29:38.544Z,9.90
2023-03-04T23:32:05.369Z,9.55
2023-03-04T23:34:31.812Z,9.77
2023-03-04T23:36:58.285Z,9.32
2023-03-04T23:39:24.828Z,9.55
2023-03-04T23:41:51.236Z,8.43
2023-03-04T23:44:17.830Z,9.20
2023-03-04T23:46:44.326Z,8.35
2023-03-04T23:49:14.444Z,9.38
2023-03-04T23:51:40.973Z,9.52
2023-03-04T23:54:08.332Z,9.75
2023-03-04T23:56:34.807Z,9.85
2023-03-04T23:59:01.258Z,9.27
